Main page
METAR-TAF:

METAR-TAF

Airports :

Angoulême – Cognac International Airport

Angoulême, France

latitude: 45-43-46N, longitude: 00-13-08E, elevation: 132 m

Current weather observation

The report was made 18 minutes ago, at 16:30 UTC
Wind 4 kt from the North/Northwest
Temperature 2°C
Humidity 80%
Pressure 1003 hPa
Visibility 10 km or more
no clouds below 1500 m and no cumulonimbus

METAR: LFBU 201630Z AUTO 33004KT CAVOK 02/M01 Q1003 NOSIG

Time: 17:48 (16:48 UTC)

Forecast

The report was made 5 hours and 48 minutes ago, at 11:00 UTC
Forecast valid from 20 at 12 UTC to 21 at 12 UTC
Wind 2 kt from variable directions
Visibility 10 km or more
Broken clouds at a height of 1300 ft
Becoming
from 20 at 12 UTC to 20 at 13 UTC
Scattered clouds at a height of 2000 ft
Becoming
from 20 at 18 UTC to 20 at 20 UTC
Visibility 10 km or more
no clouds below 1500 m and no cumulonimbus

TAF: LFBU 201100Z 2012/2112 VRB02KT 9999 BKN013 BECMG 2012/2013 SCT020 BECMG 2018/2020 CAVOK

Weather observations and forecasts of more than 4000 airports (METAR and TAF reports).

The available stations are represented by yellow and red dots on the map.

Hover mouse over dot to see the name of the station.

Then click to see weather observations and forecasts.

To change the map : click on the green buttons with a black cross to zoom in, on the green button with a dash to zoom out, or on the green arrows for adjacent maps.


METAR-TAF: